Time;durP1;ratioP1;P1;durP2;ratioP2;P2;SDS_P1;SDS_P2;PMS_P1;PMS_P2;Temp;Humidity;BMP_temperature;BMP_pressure;BME280_temperature;BME280_humidity;BME280_pressure;Samples;Min_cycle;Max_cycle;Signal;HPM_P1;HPM_P2
2022/10/29 00:04:26;;;;;;;9.38;3.80;;;;;;;;;;10183791;28;20456;-68
2022/10/29 00:09:24;;;;;;;5.90;4.20;;;;;;;;;;10184561;28;20535;-69
2022/10/29 00:14:27;;;;;;;5.95;4.40;;;;;;;;;;10169338;28;20473;-70
2022/10/29 00:19:26;;;;;;;5.68;4.03;;;;;;;;;;10177006;28;20057;-68
2022/10/29 00:24:26;;;;;;;7.15;4.85;;;;;;;;;;10198232;28;20452;-68
2022/10/29 00:29:27;;;;;;;7.75;5.07;;;;;;;;;;10190715;28;20062;-69
2022/10/29 00:34:26;;;;;;;7.82;4.53;;;;;;;;;;10168267;28;20066;-68
2022/10/29 00:39:28;;;;;;;5.80;4.05;;;;;;;;;;10172811;28;20565;-70
2022/10/29 00:44:31;;;;;;;8.43;4.60;;;;;;;;;;10166648;28;20495;-69
2022/10/29 00:49:31;;;;;;;7.32;4.78;;;;;;;;;;10169591;28;20070;-69
2022/10/29 00:54:31;;;;;;;13.30;4.63;;;;;;;;;;10183037;28;20047;-68
2022/10/29 00:59:29;;;;;;;5.82;4.25;;;;;;;;;;10171334;28;20072;-69
2022/10/29 01:04:31;;;;;;;7.63;4.28;;;;;;;;;;10167042;28;20074;-70
2022/10/29 01:09:32;;;;;;;7.55;3.97;;;;;;;;;;10173988;28;20073;-69
2022/10/29 01:14:32;;;;;;;5.80;4.35;;;;;;;;;;10195291;28;20084;-69
2022/10/29 01:19:44;;;;;;;9.13;5.00;;;;;;;;;;10188430;28;20069;-69
2022/10/29 01:24:51;;;;;;;5.32;4.65;;;;;;;;;;10168001;28;20070;-69
2022/10/29 01:29:57;;;;;;;8.95;5.13;;;;;;;;;;10167654;28;20097;-69
2022/10/29 01:34:58;;;;;;;5.43;4.10;;;;;;;;;;10167605;28;20058;-69
2022/10/29 01:39:57;;;;;;;6.13;4.57;;;;;;;;;;10167686;28;20062;-69
2022/10/29 01:44:58;;;;;;;5.50;4.38;;;;;;;;;;10167244;28;20078;-69
2022/10/29 01:50:00;;;;;;;5.47;4.38;;;;;;;;;;10166961;28;20093;-69
2022/10/29 01:55:00;;;;;;;6.10;4.28;;;;;;;;;;10167121;28;20074;-69
2022/10/29 01:59:59;;;;;;;7.18;4.13;;;;;;;;;;10166879;28;20085;-69
2022/10/29 02:05:03;;;;;;;6.75;4.35;;;;;;;;;;10165984;28;20085;-70
2022/10/29 02:10:05;;;;;;;12.77;6.05;;;;;;;;;;10166364;28;20072;-68
2022/10/29 02:15:04;;;;;;;6.43;4.80;;;;;;;;;;10164931;28;20472;-68
2022/10/29 02:20:05;;;;;;;5.35;4.78;;;;;;;;;;10165521;28;20073;-69
2022/10/29 02:25:04;;;;;;;5.72;4.22;;;;;;;;;;10165938;28;20074;-69
2022/10/29 02:30:02;;;;;;;5.72;4.28;;;;;;;;;;10165403;28;20447;-69
2022/10/29 02:35:01;;;;;;;7.72;4.72;;;;;;;;;;10164866;28;20508;-69
2022/10/29 02:40:00;;;;;;;6.82;4.50;;;;;;;;;;10165528;28;20512;-68
2022/10/29 02:44:59;;;;;;;9.65;4.70;;;;;;;;;;10165404;28;20532;-69
2022/10/29 02:49:57;;;;;;;6.47;5.03;;;;;;;;;;10164327;28;20073;-69
2022/10/29 02:54:55;;;;;;;7.00;5.30;;;;;;;;;;10163757;28;20069;-69
2022/10/29 02:59:54;;;;;;;5.82;4.45;;;;;;;;;;10163643;28;20158;-68
2022/10/29 03:04:53;;;;;;;6.10;4.50;;;;;;;;;;10173322;28;20073;-69
2022/10/29 03:09:51;;;;;;;7.45;4.97;;;;;;;;;;10189954;28;20108;-69
2022/10/29 03:14:49;;;;;;;4.82;4.32;;;;;;;;;;10190506;28;20070;-69
2022/10/29 03:19:49;;;;;;;5.43;4.10;;;;;;;;;;10190489;28;20484;-69
2022/10/29 03:24:47;;;;;;;8.07;4.95;;;;;;;;;;10178932;28;20274;-69
2022/10/29 03:29:45;;;;;;;7.20;4.60;;;;;;;;;;10162392;28;20060;-70
2022/10/29 03:34:43;;;;;;;10.48;4.78;;;;;;;;;;10169001;28;20618;-68
2022/10/29 03:39:43;;;;;;;5.40;4.90;;;;;;;;;;10169130;28;20477;-69
2022/10/29 03:44:41;;;;;;;5.70;4.68;;;;;;;;;;10168574;28;20064;-69
2022/10/29 03:49:39;;;;;;;8.48;4.90;;;;;;;;;;10170858;28;20086;-69
2022/10/29 03:54:37;;;;;;;8.20;5.70;;;;;;;;;;10174381;28;20074;-69
2022/10/29 03:59:37;;;;;;;8.70;5.32;;;;;;;;;;10168678;28;20070;-68
2022/10/29 04:04:35;;;;;;;5.57;4.63;;;;;;;;;;10169561;28;20065;-69
2022/10/29 04:09:34;;;;;;;6.25;4.43;;;;;;;;;;10168576;28;20073;-69
2022/10/29 04:14:32;;;;;;;8.75;4.28;;;;;;;;;;10170068;28;20084;-69
2022/10/29 04:19:31;;;;;;;6.72;4.88;;;;;;;;;;10167017;28;20070;-69
2022/10/29 04:24:30;;;;;;;7.07;4.30;;;;;;;;;;10169454;28;20460;-69
2022/10/29 04:29:48;;;;;;;11.30;5.75;;;;;;;;;;10166696;28;20089;-69
2022/10/29 04:34:47;;;;;;;5.15;4.63;;;;;;;;;;10168520;28;20092;-68
2022/10/29 04:39:45;;;;;;;7.93;5.00;;;;;;;;;;10171753;28;20042;-68
2022/10/29 04:44:44;;;;;;;10.02;5.45;;;;;;;;;;10168038;28;20423;-68
2022/10/29 04:49:42;;;;;;;5.57;4.57;;;;;;;;;;10176762;28;20437;-69
2022/10/29 04:54:41;;;;;;;6.50;5.82;;;;;;;;;;10195189;28;20076;-70
2022/10/29 04:59:40;;;;;;;9.65;5.30;;;;;;;;;;10187534;28;20077;-69
2022/10/29 05:04:38;;;;;;;6.15;4.88;;;;;;;;;;10166697;28;20046;-69
2022/10/29 05:09:36;;;;;;;5.80;4.60;;;;;;;;;;10168690;28;20069;-69
2022/10/29 05:14:36;;;;;;;7.43;5.07;;;;;;;;;;10167825;28;20076;-70
2022/10/29 05:19:34;;;;;;;6.90;4.10;;;;;;;;;;10169725;28;20092;-70
2022/10/29 05:24:32;;;;;;;10.10;5.03;;;;;;;;;;10185678;28;20097;-69
2022/10/29 05:29:30;;;;;;;6.70;5.10;;;;;;;;;;10183841;28;20112;-69
2022/10/29 05:34:30;;;;;;;7.88;4.72;;;;;;;;;;10176208;28;20073;-70
2022/10/29 05:39:28;;;;;;;6.05;4.32;;;;;;;;;;10174823;28;20070;-69
2022/10/29 05:44:26;;;;;;;5.50;4.82;;;;;;;;;;10180350;28;20285;-68
2022/10/29 05:49:24;;;;;;;7.78;4.78;;;;;;;;;;10188001;28;20476;-68
2022/10/29 05:54:24;;;;;;;7.00;4.90;;;;;;;;;;10187587;28;20062;-69
2022/10/29 05:59:22;;;;;;;5.57;4.60;;;;;;;;;;10187633;28;20100;-69
2022/10/29 06:04:20;;;;;;;6.85;5.13;;;;;;;;;;10184661;28;20069;-68
2022/10/29 06:09:19;;;;;;;7.18;5.20;;;;;;;;;;10171989;28;20070;-69
2022/10/29 06:14:18;;;;;;;8.30;6.47;;;;;;;;;;10181273;28;20077;-69
2022/10/29 06:19:17;;;;;;;6.68;4.65;;;;;;;;;;10160632;28;20073;-70
2022/10/29 06:24:15;;;;;;;7.43;4.55;;;;;;;;;;10163412;28;20074;-70
2022/10/29 06:29:13;;;;;;;8.25;4.55;;;;;;;;;;10165454;28;20065;-70
2022/10/29 06:34:13;;;;;;;7.25;4.95;;;;;;;;;;10159443;28;20133;-70
2022/10/29 06:39:12;;;;;;;11.43;5.53;;;;;;;;;;10165791;28;20069;-70
2022/10/29 06:44:10;;;;;;;5.22;4.70;;;;;;;;;;10155955;28;20733;-69
2022/10/29 06:49:08;;;;;;;8.85;4.90;;;;;;;;;;10161913;28;20069;-70
2022/10/29 06:54:07;;;;;;;9.77;5.07;;;;;;;;;;10169598;28;20077;-69
2022/10/29 06:59:07;;;;;;;8.65;5.90;;;;;;;;;;10193369;28;20077;-69
2022/10/29 07:04:05;;;;;;;9.32;4.97;;;;;;;;;;10193164;28;20065;-69
2022/10/29 07:09:03;;;;;;;8.27;4.93;;;;;;;;;;10192879;28;20073;-71
2022/10/29 07:14:04;;;;;;;36.78;24.88;;;;;;;;;;10176397;28;20068;-70
2022/10/29 07:19:03;;;;;;;15.85;11.02;;;;;;;;;;10200594;28;20082;-71
2022/10/29 07:24:01;;;;;;;10.45;6.25;;;;;;;;;;10196470;28;20054;-71
2022/10/29 07:28:59;;;;;;;19.25;11.52;;;;;;;;;;10191775;28;20084;-71
2022/10/29 07:33:59;;;;;;;15.90;12.90;;;;;;;;;;10191599;28;20073;-70
2022/10/29 07:38:59;;;;;;;20.27;12.63;;;;;;;;;;10172086;28;20436;-70
2022/10/29 07:43:58;;;;;;;12.05;6.30;;;;;;;;;;10183707;28;20089;-70
2022/10/29 07:48:56;;;;;;;9.05;7.53;;;;;;;;;;10197355;28;20069;-72
2022/10/29 07:53:55;;;;;;;21.73;6.97;;;;;;;;;;10199171;28;20468;-72
2022/10/29 07:58:53;;;;;;;10.60;6.35;;;;;;;;;;10198593;28;20077;-71
2022/10/29 08:03:52;;;;;;;13.82;7.97;;;;;;;;;;10195366;28;20080;-70
2022/10/29 08:08:50;;;;;;;11.35;7.93;;;;;;;;;;10164441;28;20076;-69
2022/10/29 08:13:50;;;;;;;16.25;14.45;;;;;;;;;;10166747;28;20077;-70
2022/10/29 08:18:48;;;;;;;9.40;7.30;;;;;;;;;;10168611;28;20484;-70
2022/10/29 08:23:46;;;;;;;12.10;6.95;;;;;;;;;;10166630;28;20074;-71
2022/10/29 08:28:44;;;;;;;10.40;6.43;;;;;;;;;;10165410;28;20484;-69
2022/10/29 08:33:47;;;;;;;14.98;9.32;;;;;;;;;;10169036;28;20073;-70
2022/10/29 08:38:46;;;;;;;9.50;6.20;;;;;;;;;;10184390;28;20080;-69
2022/10/29 08:43:56;;;;;;;6.25;4.88;;;;;;;;;;10164478;28;20623;-71
2022/10/29 08:48:57;;;;;;;13.00;7.82;;;;;;;;;;10166220;28;20098;-71
2022/10/29 08:53:56;;;;;;;9.40;5.57;;;;;;;;;;10165811;28;20077;-71
2022/10/29 08:59:17;;;;;;;9.70;6.07;;;;;;;;;;10170746;28;20077;-70
2022/10/29 09:04:22;;;;;;;10.93;6.03;;;;;;;;;;10161881;28;20070;-70
2022/10/29 09:09:27;;;;;;;7.40;4.53;;;;;;;;;;10165014;28;20523;-70
2022/10/29 09:14:35;;;;;;;10.32;6.07;;;;;;;;;;10166842;28;20053;-71
2022/10/29 09:19:41;;;;;;;15.48;8.30;;;;;;;;;;10166830;28;20077;-71
2022/10/29 09:24:42;;;;;;;8.43;4.93;;;;;;;;;;10168371;28;20042;-71
2022/10/29 09:29:55;;;;;;;6.13;5.00;;;;;;;;;;10166870;28;20062;-69
2022/10/29 09:34:58;;;;;;;6.72;4.93;;;;;;;;;;10164741;28;20055;-70
2022/10/29 09:39:57;;;;;;;10.88;5.55;;;;;;;;;;10167541;28;20497;-70
2022/10/29 09:44:56;;;;;;;8.93;6.22;;;;;;;;;;10178810;28;20410;-70
2022/10/29 09:50:01;;;;;;;10.88;5.55;;;;;;;;;;10195085;28;20054;-71
2022/10/29 09:55:07;;;;;;;7.28;5.50;;;;;;;;;;10194085;28;20145;-70
2022/10/29 10:00:06;;;;;;;10.82;7.00;;;;;;;;;;10196281;28;20511;-70
2022/10/29 10:05:10;;;;;;;;;;;;;;;;;;10175235;28;20085;-70
2022/10/29 10:10:19;;;;;;;10.32;6.80;;;;;;;;;;10166686;28;19968;-70
2022/10/29 10:15:19;;;;;;;13.73;7.38;;;;;;;;;;10175822;28;20089;-69
2022/10/29 10:20:26;;;;;;;11.10;6.15;;;;;;;;;;10174593;28;20077;-68
2022/10/29 10:25:45;;;;;;;10.73;6.57;;;;;;;;;;10180450;28;20045;-69
2022/10/29 10:30:45;;;;;;;8.35;5.03;;;;;;;;;;10187089;28;20081;-69
2022/10/29 10:35:43;;;;;;;6.45;5.20;;;;;;;;;;10175869;28;20066;-69
2022/10/29 10:40:42;;;;;;;8.25;5.95;;;;;;;;;;10179713;28;20053;-70
2022/10/29 10:45:41;;;;;;;22.35;6.13;;;;;;;;;;10201420;28;20042;-68
2022/10/29 10:50:40;;;;;;;6.13;5.15;;;;;;;;;;10184342;28;20081;-69
2022/10/29 10:55:39;;;;;;;8.52;5.40;;;;;;;;;;10187439;28;20076;-70
2022/10/29 11:00:39;;;;;;;14.82;5.65;;;;;;;;;;10183424;28;20814;-70
2022/10/29 11:05:40;;;;;;;6.85;4.60;;;;;;;;;;10201576;28;20057;-70
2022/10/29 11:10:42;;;;;;;8.60;4.93;;;;;;;;;;10200151;28;20464;-69
2022/10/29 11:15:44;;;;;;;10.38;5.22;;;;;;;;;;10200819;28;20077;-70
2022/10/29 11:20:44;;;;;;;14.68;6.68;;;;;;;;;;10200472;28;20034;-70
2022/10/29 11:25:48;;;;;;;9.15;4.97;;;;;;;;;;10180374;28;20043;-70
2022/10/29 11:30:49;;;;;;;13.70;5.80;;;;;;;;;;10170383;28;20077;-69
2022/10/29 11:35:50;;;;;;;6.03;4.20;;;;;;;;;;10171903;28;20073;-70
2022/10/29 11:40:53;;;;;;;8.70;5.93;;;;;;;;;;10169602;28;20076;-71
2022/10/29 11:45:58;;;;;;;7.50;4.90;;;;;;;;;;10171063;28;20077;-70
2022/10/29 11:50:58;;;;;;;4.63;3.72;;;;;;;;;;10171483;28;20073;-69
2022/10/29 11:56:04;;;;;;;5.65;3.88;;;;;;;;;;10170925;28;20085;-69
2022/10/29 12:01:07;;;;;;;8.38;5.82;;;;;;;;;;10169854;28;20472;-69
2022/10/29 12:06:09;;;;;;;6.30;3.10;;;;;;;;;;10167074;28;20046;-68
2022/10/29 12:11:12;;;;;;;11.50;3.53;;;;;;;;;;10170431;28;20074;-70
2022/10/29 12:16:14;;;;;;;12.10;4.40;;;;;;;;;;10190443;28;20088;-70
2022/10/29 12:21:18;;;;;;;5.03;3.85;;;;;;;;;;10197432;28;20643;-70
2022/10/29 12:26:21;;;;;;;6.95;4.13;;;;;;;;;;10197202;28;20049;-70
2022/10/29 12:31:25;;;;;;;4.57;3.25;;;;;;;;;;10175477;28;20543;-70
2022/10/29 12:36:23;;;;;;;;;;;;;;;;;;10169264;28;20093;-69
2022/10/29 12:41:24;;;;;;;5.03;4.28;;;;;;;;;;10169883;28;19953;-70
2022/10/29 12:46:28;;;;;;;9.18;7.10;;;;;;;;;;10168700;28;20070;-69
2022/10/29 12:51:29;;;;;;;5.32;4.80;;;;;;;;;;10167873;28;20089;-70
2022/10/29 12:56:31;;;;;;;10.75;6.10;;;;;;;;;;10168718;28;20046;-70
2022/10/29 13:01:48;;;;;;;11.15;5.25;;;;;;;;;;10168560;28;20085;-68
2022/10/29 13:07:21;;;;;;;9.70;5.28;;;;;;;;;;10163791;28;20081;-69
2022/10/29 13:12:35;;;;;;;9.15;6.18;;;;;;;;;;10166152;28;20070;-69
2022/10/29 13:17:37;;;;;;;8.55;5.60;;;;;;;;;;10159986;28;20084;-69
2022/10/29 13:23:00;;;;;;;9.32;5.07;;;;;;;;;;10161191;28;20483;-69
2022/10/29 13:28:29;;;;;;;9.00;7.55;;;;;;;;;;10152012;28;20073;-70
2022/10/29 13:33:44;;;;;;;9.90;5.43;;;;;;;;;;10195622;28;20073;-71
2022/10/29 13:38:45;;;;;;;12.52;6.85;;;;;;;;;;10181689;28;20408;-70
2022/10/29 13:44:05;;;;;;;9.23;5.93;;;;;;;;;;10192720;28;20073;-71
2022/10/29 13:49:07;;;;;;;8.82;5.78;;;;;;;;;;10194301;28;20095;-71
2022/10/29 13:54:09;;;;;;;15.55;11.02;;;;;;;;;;10194269;28;20069;-69
2022/10/29 13:59:11;;;;;;;6.97;5.03;;;;;;;;;;10192991;28;20110;-70
2022/10/29 14:04:16;;;;;;;7.13;3.55;;;;;;;;;;10188087;28;20076;-69
2022/10/29 14:09:20;;;;;;;15.23;9.35;;;;;;;;;;10173516;28;20101;-70
2022/10/29 14:14:23;;;;;;;15.35;8.25;;;;;;;;;;10179771;28;20110;-70
2022/10/29 14:19:22;;;;;;;9.13;6.60;;;;;;;;;;10185260;28;20042;-70
2022/10/29 14:24:21;;;;;;;8.95;5.18;;;;;;;;;;10186868;28;20432;-70
2022/10/29 14:29:20;;;;;;;10.13;5.13;;;;;;;;;;10165286;28;20078;-70
2022/10/29 14:34:22;;;;;;;8.50;4.35;;;;;;;;;;10165154;28;20081;-69
2022/10/29 14:39:23;;;;;;;12.80;9.35;;;;;;;;;;10171609;28;20065;-69
2022/10/29 14:44:31;;;;;;;12.10;7.35;;;;;;;;;;10165959;28;20077;-68
2022/10/29 14:49:29;;;;;;;9.38;6.25;;;;;;;;;;10186936;28;20096;-69
2022/10/29 14:54:30;;;;;;;7.00;5.35;;;;;;;;;;10181016;28;20173;-69
2022/10/29 14:59:29;;;;;;;8.40;4.65;;;;;;;;;;10164715;28;20073;-70
2022/10/29 15:04:28;;;;;;;22.08;16.55;;;;;;;;;;10171862;28;20073;-70
2022/10/29 15:09:28;;;;;;;78.03;22.13;;;;;;;;;;10187212;28;20082;-71
2022/10/29 15:14:35;;;;;;;18.35;9.48;;;;;;;;;;10160688;28;20065;-71
2022/10/29 15:19:33;;;;;;;30.40;23.65;;;;;;;;;;10170987;28;20069;-71
2022/10/29 15:24:32;;;;;;;26.70;21.63;;;;;;;;;;10191045;28;20344;-70
2022/10/29 15:29:33;;;;;;;34.78;28.83;;;;;;;;;;10194565;28;20492;-70
2022/10/29 15:34:37;;;;;;;47.53;40.33;;;;;;;;;;10191513;28;20073;-70
2022/10/29 15:39:59;;;;;;;29.58;24.88;;;;;;;;;;10180450;28;20049;-71
2022/10/29 15:45:14;;;;;;;23.77;20.08;;;;;;;;;;10200007;28;20076;-71
2022/10/29 15:50:12;;;;;;;;;;;;;;;;;;10186856;28;20085;-70
2022/10/29 15:55:13;;;;;;;33.92;25.15;;;;;;;;;;10198338;28;20354;-71
2022/10/29 16:00:13;;;;;;;82.00;65.68;;;;;;;;;;10189710;28;20574;-71
2022/10/29 16:05:12;;;;;;;49.33;38.65;;;;;;;;;;10171545;28;20120;-71
2022/10/29 16:10:14;;;;;;;44.25;34.55;;;;;;;;;;10170807;28;20277;-71
2022/10/29 16:15:14;;;;;;;21.77;15.75;;;;;;;;;;10171081;28;20077;-72
2022/10/29 16:20:14;;;;;;;46.42;36.33;;;;;;;;;;10171233;28;20077;-71
2022/10/29 16:25:20;;;;;;;23.95;18.90;;;;;;;;;;10170832;28;20107;-70
2022/10/29 16:30:20;;;;;;;49.83;40.90;;;;;;;;;;10183813;28;20073;-69
2022/10/29 16:35:20;;;;;;;39.70;30.20;;;;;;;;;;10169535;28;20082;-70
2022/10/29 16:40:18;;;;;;;21.38;15.85;;;;;;;;;;10197056;28;20057;-70
2022/10/29 16:45:18;;;;;;;15.50;10.27;;;;;;;;;;10199052;28;20042;-70
2022/10/29 16:50:18;;;;;;;27.88;23.88;;;;;;;;;;10182750;28;20092;-70
2022/10/29 16:55:16;;;;;;;23.23;18.15;;;;;;;;;;10169542;28;20085;-70
2022/10/29 17:00:15;;;;;;;7.00;4.50;;;;;;;;;;10182268;28;20061;-70
2022/10/29 17:05:14;;;;;;;8.98;4.70;;;;;;;;;;10193867;28;20069;-70
2022/10/29 17:10:13;;;;;;;6.72;4.03;;;;;;;;;;10191334;28;20073;-70
2022/10/29 17:15:11;;;;;;;8.57;5.45;;;;;;;;;;10195367;28;20074;-70
2022/10/29 17:20:10;;;;;;;7.22;4.22;;;;;;;;;;10188423;28;20073;-70
2022/10/29 17:25:09;;;;;;;10.85;4.40;;;;;;;;;;10192899;28;20046;-70
2022/10/29 17:30:09;;;;;;;6.50;4.78;;;;;;;;;;10191224;28;20460;-71
2022/10/29 17:35:08;;;;;;;7.72;4.88;;;;;;;;;;10167668;28;20089;-71
2022/10/29 17:40:06;;;;;;;10.50;5.10;;;;;;;;;;10191625;28;20065;-69
2022/10/29 17:45:06;;;;;;;4.85;4.03;;;;;;;;;;10191642;28;20077;-70
2022/10/29 17:50:06;;;;;;;5.95;4.10;;;;;;;;;;10192775;28;20092;-71
2022/10/29 17:55:04;;;;;;;8.38;4.93;;;;;;;;;;10186937;28;20085;-71
2022/10/29 18:00:03;;;;;;;6.15;3.88;;;;;;;;;;10180964;28;20085;-70
2022/10/29 18:05:01;;;;;;;7.88;4.50;;;;;;;;;;10185919;28;20077;-71
2022/10/29 18:10:04;;;;;;;7.18;4.68;;;;;;;;;;10179091;28;20109;-71
2022/10/29 18:15:02;;;;;;;7.13;4.18;;;;;;;;;;10175817;28;20072;-70
2022/10/29 18:20:01;;;;;;;7.63;4.40;;;;;;;;;;10185477;28;20069;-70
2022/10/29 18:24:59;;;;;;;10.50;4.15;;;;;;;;;;10161855;28;20605;-70
2022/10/29 18:29:58;;;;;;;5.60;4.85;;;;;;;;;;10184531;28;20072;-70
2022/10/29 18:34:57;;;;;;;5.72;4.80;;;;;;;;;;10185188;28;20070;-69
2022/10/29 18:39:57;;;;;;;6.82;4.65;;;;;;;;;;10178601;28;20070;-68
2022/10/29 18:44:55;;;;;;;8.60;5.80;;;;;;;;;;10181853;28;20730;-67
2022/10/29 18:49:55;;;;;;;7.70;4.65;;;;;;;;;;10184730;28;20648;-68
2022/10/29 18:54:53;;;;;;;6.72;5.05;;;;;;;;;;10185295;28;20100;-69
2022/10/29 18:59:52;;;;;;;5.55;4.88;;;;;;;;;;10185832;28;20165;-69
2022/10/29 19:04:50;;;;;;;8.80;5.72;;;;;;;;;;10188593;28;20078;-69
2022/10/29 19:09:50;;;;;;;5.75;4.97;;;;;;;;;;10198974;28;20069;-69
2022/10/29 19:14:48;;;;;;;6.93;5.25;;;;;;;;;;10195592;28;20073;-69
2022/10/29 19:19:46;;;;;;;6.07;4.20;;;;;;;;;;10179676;28;20049;-69
2022/10/29 19:24:44;;;;;;;7.32;4.95;;;;;;;;;;10198598;28;20448;-70
2022/10/29 19:29:44;;;;;;;9.95;5.15;;;;;;;;;;10197232;28;20074;-70
2022/10/29 19:34:43;;;;;;;7.20;4.45;;;;;;;;;;10198519;28;20069;-70
2022/10/29 19:39:42;;;;;;;6.60;4.82;;;;;;;;;;10194666;28;20082;-70
2022/10/29 19:44:40;;;;;;;9.65;5.00;;;;;;;;;;10174105;28;20507;-70
2022/10/29 19:49:39;;;;;;;9.73;4.82;;;;;;;;;;10187179;28;20081;-70
2022/10/29 19:54:38;;;;;;;5.80;4.65;;;;;;;;;;10188427;28;20080;-70
2022/10/29 19:59:36;;;;;;;6.45;4.90;;;;;;;;;;10180656;28;20065;-69
2022/10/29 20:04:34;;;;;;;9.32;4.93;;;;;;;;;;10192352;28;20151;-69
2022/10/29 20:09:34;;;;;;;8.32;4.40;;;;;;;;;;10193984;28;20528;-69
2022/10/29 20:14:34;;;;;;;5.00;4.38;;;;;;;;;;10189023;28;20335;-70
2022/10/29 20:19:32;;;;;;;6.05;4.68;;;;;;;;;;10190398;28;20069;-69
2022/10/29 20:24:30;;;;;;;6.43;4.53;;;;;;;;;;10187846;28;20080;-70
2022/10/29 20:29:30;;;;;;;6.68;4.32;;;;;;;;;;10186840;28;20069;-70
2022/10/29 20:34:28;;;;;;;11.27;4.20;;;;;;;;;;10189626;28;20526;-70
2022/10/29 20:39:26;;;;;;;5.35;4.25;;;;;;;;;;10187882;28;20058;-69
2022/10/29 20:44:31;;;;;;;7.28;5.10;;;;;;;;;;10171318;28;20065;-69
2022/10/29 20:49:30;;;;;;;7.82;3.88;;;;;;;;;;10190555;28;20093;-70
2022/10/29 20:54:28;;;;;;;7.03;5.22;;;;;;;;;;10183476;28;20062;-70
2022/10/29 20:59:26;;;;;;;9.18;4.22;;;;;;;;;;10188840;28;20062;-70
2022/10/29 21:04:25;;;;;;;5.13;4.18;;;;;;;;;;10189401;28;20069;-70
2022/10/29 21:09:24;;;;;;;9.30;4.40;;;;;;;;;;10195334;28;20084;-70
2022/10/29 21:14:22;;;;;;;5.70;4.25;;;;;;;;;;10193430;28;20073;-70
2022/10/29 21:19:21;;;;;;;5.22;4.30;;;;;;;;;;10197622;28;20401;-70
2022/10/29 21:24:21;;;;;;;5.05;4.07;;;;;;;;;;10179102;28;20471;-69
2022/10/29 21:29:19;;;;;;;8.88;4.45;;;;;;;;;;10188284;28;20435;-69
2022/10/29 21:34:17;;;;;;;5.32;4.22;;;;;;;;;;10191503;28;20495;-69
2022/10/29 21:39:15;;;;;;;5.60;3.55;;;;;;;;;;10183405;28;20057;-69
2022/10/29 21:44:15;;;;;;;6.22;4.32;;;;;;;;;;10187157;28;20396;-69
2022/10/29 21:49:13;;;;;;;5.07;4.00;;;;;;;;;;10191857;28;20088;-69
2022/10/29 21:54:11;;;;;;;4.95;4.40;;;;;;;;;;10190329;28;20069;-70
2022/10/29 21:59:09;;;;;;;5.45;4.18;;;;;;;;;;10191037;28;20439;-70
2022/10/29 22:04:09;;;;;;;6.15;5.05;;;;;;;;;;10187122;28;20078;-70
2022/10/29 22:09:08;;;;;;;4.78;4.00;;;;;;;;;;10185560;28;20077;-70
2022/10/29 22:14:07;;;;;;;10.27;4.68;;;;;;;;;;10182872;28;20061;-70
2022/10/29 22:19:05;;;;;;;9.25;4.50;;;;;;;;;;10190168;28;20084;-69
2022/10/29 22:24:05;;;;;;;6.53;4.38;;;;;;;;;;10188544;28;20501;-69
2022/10/29 22:29:03;;;;;;;6.65;3.95;;;;;;;;;;10181305;28;20066;-69
2022/10/29 22:34:01;;;;;;;8.43;4.05;;;;;;;;;;10184633;28;20085;-70
2022/10/29 22:39:00;;;;;;;4.85;3.70;;;;;;;;;;10172351;28;20494;-70
2022/10/29 22:44:05;;;;;;;5.17;4.07;;;;;;;;;;10192257;28;20073;-70
2022/10/29 22:49:03;;;;;;;4.80;4.05;;;;;;;;;;10170549;28;20797;-70
2022/10/29 22:54:02;;;;;;;6.32;3.92;;;;;;;;;;10183778;28;20089;-70
2022/10/29 22:59:00;;;;;;;5.15;4.30;;;;;;;;;;10192961;28;20062;-71
2022/10/29 23:04:00;;;;;;;4.80;4.05;;;;;;;;;;10192295;28;20213;-69
2022/10/29 23:09:00;;;;;;;6.60;4.00;;;;;;;;;;10195061;28;20053;-70
2022/10/29 23:14:00;;;;;;;5.28;3.97;;;;;;;;;;10181441;28;20066;-69
2022/10/29 23:19:01;;;;;;;6.47;4.15;;;;;;;;;;10154058;28;20081;-69
2022/10/29 23:23:59;;;;;;;7.20;4.63;;;;;;;;;;10167102;28;20507;-70
2022/10/29 23:28:57;;;;;;;6.43;4.20;;;;;;;;;;10164095;28;20065;-69
2022/10/29 23:33:56;;;;;;;5.88;4.15;;;;;;;;;;10162762;28;20096;-69
2022/10/29 23:38:56;;;;;;;6.22;4.40;;;;;;;;;;10182494;28;20508;-70
2022/10/29 23:43:55;;;;;;;5.50;4.43;;;;;;;;;;10189161;28;20066;-69
2022/10/29 23:48:53;;;;;;;5.10;4.03;;;;;;;;;;10183879;28;20073;-70
2022/10/29 23:53:52;;;;;;;5.03;4.20;;;;;;;;;;10186259;28;20146;-70
2022/10/29 23:58:56;;;;;;;6.47;4.10;;;;;;;;;;10190978;28;20096;-70
